createdAt,value
2019-02-20T00:00:05.747Z,100959.76
2019-02-20T00:01:14.985Z,100961.09
2019-02-20T00:02:19.046Z,100958.86
2019-02-20T00:03:23.534Z,100958.41
2019-02-20T00:04:27.794Z,100958.42
2019-02-20T00:05:32.339Z,100953.50
2019-02-20T00:06:36.271Z,100961.09
2019-02-20T00:07:40.276Z,100961.11
2019-02-20T00:08:44.793Z,100961.11
2019-02-20T00:09:48.646Z,100959.77
2019-02-20T00:10:52.763Z,100963.35
2019-02-20T00:11:56.693Z,100962.91
2019-02-20T00:13:00.991Z,100961.16
2019-02-20T00:14:05.016Z,100962.51
2019-02-20T00:15:09.707Z,100961.16
2019-02-20T00:16:13.735Z,100968.77
2019-02-20T00:17:18.220Z,100971.41
2019-02-20T00:18:22.838Z,100970.11
2019-02-20T00:19:26.851Z,100964.30
2019-02-20T00:20:30.814Z,100968.80
2019-02-20T00:21:35.052Z,100966.55
2019-02-20T00:22:40.472Z,100970.58
2019-02-20T00:23:44.572Z,100968.36
2019-02-20T00:24:48.753Z,100970.59
2019-02-20T00:25:52.641Z,100968.41
2019-02-20T00:26:56.897Z,100966.63
2019-02-20T00:28:01.038Z,100963.94
2019-02-20T00:29:05.303Z,100971.10
2019-02-20T00:30:09.616Z,100962.17
2019-02-20T00:31:13.892Z,100968.88
2019-02-20T00:32:18.228Z,100967.99
2019-02-20T00:33:22.538Z,100972.95
2019-02-20T00:34:26.759Z,100971.17
2019-02-20T00:35:31.054Z,100968.04
2019-02-20T00:36:35.448Z,100966.70
2019-02-20T00:37:39.668Z,100967.60
2019-02-20T00:38:43.986Z,100965.82
2019-02-20T00:39:48.283Z,100969.40
2019-02-20T00:40:52.314Z,100965.83
2019-02-20T00:41:56.334Z,100967.62
2019-02-20T00:43:00.199Z,100969.90
2019-02-20T00:44:19.495Z,100969.01
2019-02-20T00:45:42.340Z,100966.33
2019-02-20T00:46:54.215Z,100970.37
2019-02-20T00:48:17.135Z,100968.15
2019-02-20T00:49:42.714Z,100968.63
2019-02-20T00:50:47.135Z,100972.22
2019-02-20T00:52:10.282Z,100968.64
2019-02-20T00:53:22.210Z,100976.25
2019-02-20T00:54:26.475Z,100970.00
2019-02-20T00:55:30.783Z,100966.43
2019-02-20T00:56:34.847Z,100972.24
2019-02-20T00:57:39.014Z,100970.49
2019-02-20T00:58:43.016Z,100968.26
2019-02-20T00:59:46.947Z,100976.72
2019-02-20T01:00:50.882Z,100974.47
2019-02-20T01:01:54.826Z,100970.90
2019-02-20T01:02:59.099Z,100978.48
2019-02-20T01:04:03.029Z,100976.25
2019-02-20T01:05:07.298Z,100983.39
2019-02-20T01:06:11.318Z,100978.92
2019-02-20T01:07:15.614Z,100978.92
2019-02-20T01:08:19.545Z,100983.39
2019-02-20T01:09:23.799Z,100982.05
2019-02-20T01:10:27.972Z,100983.84
2019-02-20T01:11:32.409Z,100984.74
2019-02-20T01:12:36.666Z,100984.74
2019-02-20T01:13:40.666Z,100984.29
2019-02-20T01:14:44.855Z,100982.50
2019-02-20T01:15:49.205Z,100985.62
2019-02-20T01:16:53.549Z,100988.26
2019-02-20T01:17:57.560Z,100982.00
2019-02-20T01:19:01.578Z,100990.05
2019-02-20T01:20:06.397Z,100981.53
2019-02-20T01:21:10.352Z,100982.87
2019-02-20T01:22:14.575Z,100985.55
2019-02-20T01:23:18.608Z,100985.55
2019-02-20T01:24:22.866Z,100988.23
2019-02-20T01:25:26.792Z,100990.87
2019-02-20T01:26:30.979Z,100987.73
2019-02-20T01:27:35.308Z,100989.97
2019-02-20T01:28:39.251Z,100989.08
2019-02-20T01:29:43.573Z,100985.05
2019-02-20T01:30:47.612Z,100990.41
2019-02-20T01:31:51.929Z,100992.64
2019-02-20T01:32:55.966Z,100991.30
2019-02-20T01:34:00.540Z,100988.17
2019-02-20T01:35:04.953Z,100983.70
2019-02-20T01:36:09.173Z,100987.28
2019-02-20T01:37:13.466Z,100997.11
2019-02-20T01:38:17.451Z,100989.52
2019-02-20T01:39:21.532Z,100988.19
2019-02-20T01:40:25.576Z,100988.23
2019-02-20T01:41:29.550Z,100989.97
2019-02-20T01:42:33.532Z,100989.13
2019-02-20T01:43:37.600Z,100987.80
2019-02-20T01:44:41.632Z,100988.25
2019-02-20T01:45:46.087Z,100994.11
2019-02-20T01:46:53.496Z,100989.20
2019-02-20T01:47:57.897Z,100984.29
2019-02-20T01:49:01.891Z,100981.60
2019-02-20T01:50:06.158Z,100979.81
2019-02-20T01:51:10.203Z,100974.89
2019-02-20T01:52:14.243Z,100976.19
2019-02-20T01:53:18.311Z,100973.05
2019-02-20T01:54:22.356Z,100967.23
2019-02-20T01:55:26.721Z,100977.06
2019-02-20T01:56:30.789Z,100968.57
2019-02-20T01:57:34.755Z,100973.88
2019-02-20T01:58:39.143Z,100969.45
2019-02-20T01:59:43.228Z,100971.20
2019-02-20T02:00:47.731Z,100964.09
2019-02-20T02:01:51.708Z,100965.43
2019-02-20T02:02:55.758Z,100967.18
2019-02-20T02:04:00.776Z,100964.09
2019-02-20T02:05:05.269Z,100966.73
2019-02-20T02:06:09.313Z,100968.56
2019-02-20T02:07:13.352Z,100969.45
2019-02-20T02:08:17.696Z,100969.86
2019-02-20T02:09:21.755Z,100968.11
2019-02-20T02:10:25.806Z,100968.12
2019-02-20T02:11:30.218Z,100971.70
2019-02-20T02:12:34.263Z,100966.78
2019-02-20T02:13:38.610Z,100967.24
2019-02-20T02:14:42.649Z,100967.70
2019-02-20T02:15:46.610Z,100970.42
2019-02-20T02:16:51.011Z,100970.88
2019-02-20T02:17:55.053Z,100964.17
2019-02-20T02:18:59.045Z,100966.86
2019-02-20T02:20:03.158Z,100970.45
2019-02-20T02:21:07.193Z,100964.20
2019-02-20T02:22:11.485Z,100967.81
2019-02-20T02:23:19.813Z,100962.02
2019-02-20T02:24:21.299Z,100971.41
2019-02-20T02:25:25.324Z,100962.47
2019-02-20T02:26:29.378Z,100966.95
2019-02-20T02:27:33.398Z,100963.41
2019-02-20T02:28:37.803Z,100961.18
2019-02-20T02:29:41.842Z,100958.51
2019-02-20T02:30:46.192Z,100958.07
2019-02-20T02:31:50.859Z,100956.78
2019-02-20T02:32:54.943Z,100957.23
2019-02-20T02:33:58.983Z,100957.25
2019-02-20T02:35:03.059Z,100961.27
2019-02-20T02:36:07.403Z,100957.73
2019-02-20T02:37:11.676Z,100962.20
2019-02-20T02:38:15.720Z,100955.97
2019-02-20T02:39:19.807Z,100957.31
2019-02-20T02:40:23.777Z,100955.53
2019-02-20T02:41:28.342Z,100950.21
2019-02-20T02:42:32.575Z,100949.32
2019-02-20T02:43:36.618Z,100951.56
2019-02-20T02:44:40.719Z,100952.91
2019-02-20T02:45:44.927Z,100953.39
2019-02-20T02:46:48.963Z,100952.52
2019-02-20T02:47:52.893Z,100954.30
2019-02-20T02:48:56.892Z,100959.70
2019-02-20T02:50:01.420Z,100953.46
2019-02-20T02:51:05.362Z,100958.38
2019-02-20T02:52:09.547Z,100958.38
2019-02-20T02:53:13.489Z,100957.04
2019-02-20T02:54:17.720Z,100960.61
2019-02-20T02:55:21.739Z,100961.51
2019-02-20T02:56:25.715Z,100959.72
2019-02-20T02:57:29.653Z,100960.61
2019-02-20T02:58:33.828Z,100958.38
2019-02-20T02:59:37.790Z,100953.91
2019-02-20T03:00:41.762Z,100953.91
2019-02-20T03:01:45.758Z,100953.46
2019-02-20T03:02:49.700Z,100955.64
2019-02-20T03:03:53.881Z,100958.32
2019-02-20T03:04:57.925Z,100957.43
2019-02-20T03:06:02.146Z,100965.91
2019-02-20T03:07:06.157Z,100964.58
2019-02-20T03:08:10.173Z,100961.89
2019-02-20T03:09:14.545Z,100958.32
2019-02-20T03:10:18.575Z,100965.06
2019-02-20T03:11:22.856Z,100956.14
2019-02-20T03:12:27.241Z,100962.38
2019-02-20T03:13:31.463Z,100957.93
2019-02-20T03:14:36.097Z,100960.17
2019-02-20T03:15:40.128Z,100961.09
2019-02-20T03:16:44.559Z,100960.21
2019-02-20T03:17:48.916Z,100955.70
2019-02-20T03:18:53.223Z,100957.98
2019-02-20T03:19:57.839Z,100961.09
2019-02-20T03:21:02.233Z,100963.28
2019-02-20T03:22:06.251Z,100968.69
2019-02-20T03:23:10.455Z,100971.77
2019-02-20T03:24:14.632Z,100974.05
2019-02-20T03:25:18.555Z,100971.77
2019-02-20T03:26:22.503Z,100969.09
2019-02-20T03:27:26.751Z,100974.94
2019-02-20T03:28:31.250Z,100978.96
2019-02-20T03:29:35.179Z,100978.07
2019-02-20T03:30:39.657Z,100980.34
2019-02-20T03:31:43.934Z,100985.25
2019-02-20T03:32:48.107Z,100983.02
2019-02-20T03:33:52.268Z,100974.55
2019-02-20T03:34:56.513Z,100985.75
2019-02-20T03:36:00.459Z,100987.54
2019-02-20T03:37:04.704Z,100977.31
2019-02-20T03:38:08.639Z,100979.99
2019-02-20T03:39:12.664Z,100980.03
2019-02-20T03:40:16.886Z,100981.81
2019-02-20T03:41:20.917Z,100981.81
2019-02-20T03:42:24.913Z,100992.97
2019-02-20T03:43:29.175Z,100991.22
2019-02-20T03:44:33.433Z,100992.52
2019-02-20T03:45:37.352Z,100995.20
2019-02-20T03:46:41.615Z,100997.43
2019-02-20T03:47:45.714Z,100992.97
2019-02-20T03:48:49.653Z,100987.17
2019-02-20T03:49:53.917Z,100995.16
2019-02-20T03:50:57.926Z,100992.93
2019-02-20T03:52:02.124Z,100992.48
2019-02-20T03:53:06.227Z,100990.66
2019-02-20T03:54:11.001Z,100988.88
2019-02-20T03:55:15.106Z,100980.39
2019-02-20T03:56:19.275Z,100983.92
2019-02-20T03:57:23.228Z,100982.58
2019-02-20T03:58:27.240Z,100986.15
2019-02-20T03:59:31.503Z,100981.69
2019-02-20T04:00:35.545Z,100984.32
2019-02-20T04:01:39.813Z,100981.19
2019-02-20T04:02:43.753Z,100979.84
2019-02-20T04:03:48.168Z,100985.61
2019-02-20T04:04:52.116Z,100983.83
2019-02-20T04:05:56.867Z,100984.27
2019-02-20T04:07:00.873Z,100987.84
2019-02-20T04:08:04.970Z,100984.27
2019-02-20T04:09:09.258Z,100987.84
2019-02-20T04:10:13.280Z,100991.86
2019-02-20T04:11:17.222Z,100989.17
2019-02-20T04:12:21.247Z,100988.28
2019-02-20T04:13:25.184Z,100987.84
2019-02-20T04:14:29.667Z,100990.52
2019-02-20T04:15:33.974Z,100990.52
2019-02-20T04:16:38.182Z,100989.62
2019-02-20T04:17:42.693Z,100994.94
2019-02-20T04:18:47.212Z,100993.16
2019-02-20T04:19:51.229Z,100998.06
2019-02-20T04:20:55.272Z,100992.26
2019-02-20T04:21:59.526Z,101002.08
2019-02-20T04:23:03.889Z,100993.59
2019-02-20T04:24:07.904Z,100996.23
2019-02-20T04:25:11.844Z,100993.99
2019-02-20T04:26:15.852Z,100999.80
2019-02-20T04:27:19.735Z,100998.44
2019-02-20T04:28:23.936Z,100998.00
2019-02-20T04:29:27.924Z,100994.39
2019-02-20T04:30:32.242Z,100998.40
2019-02-20T04:31:36.549Z,100995.72
2019-02-20T04:32:40.503Z,101001.03
2019-02-20T04:33:44.775Z,101000.13
2019-02-20T04:34:48.966Z,100990.73
2019-02-20T04:35:52.891Z,100993.83
2019-02-20T04:36:57.389Z,101001.01
2019-02-20T04:38:01.673Z,101003.64
2019-02-20T04:39:06.608Z,101004.09
2019-02-20T04:40:10.639Z,100997.39
2019-02-20T04:41:14.582Z,101000.56
2019-02-20T04:42:18.659Z,101006.81
2019-02-20T04:43:22.859Z,101002.34
2019-02-20T04:44:27.115Z,100996.98
2019-02-20T04:45:31.304Z,101000.08
2019-02-20T04:46:35.403Z,101004.54
2019-02-20T04:47:39.849Z,101003.20
2019-02-20T04:48:43.775Z,101003.20
2019-02-20T04:49:47.975Z,101007.20
2019-02-20T04:50:51.986Z,101002.28
2019-02-20T04:51:56.233Z,101006.71
2019-02-20T04:53:00.176Z,101013.42
2019-02-20T04:54:12.927Z,101008.09
2019-02-20T04:55:10.175Z,101007.20
2019-02-20T04:56:14.326Z,101004.97
2019-02-20T04:57:18.923Z,101009.87
2019-02-20T04:58:23.523Z,101007.20
2019-02-20T04:59:27.804Z,101004.03
2019-02-20T05:00:32.159Z,101007.60
2019-02-20T05:01:36.461Z,101007.16
2019-02-20T05:02:40.487Z,101006.25
2019-02-20T05:03:44.681Z,101009.38
2019-02-20T05:04:48.692Z,101007.15
2019-02-20T05:05:53.082Z,101001.34
2019-02-20T05:06:57.068Z,101004.92
2019-02-20T05:08:01.086Z,101002.69
2019-02-20T05:09:06.340Z,101006.75
2019-02-20T05:10:11.338Z,101005.87
2019-02-20T05:11:15.280Z,101012.58
2019-02-20T05:12:19.220Z,101007.22
2019-02-20T05:13:23.171Z,101013.47
2019-02-20T05:14:27.416Z,101014.41
2019-02-20T05:15:31.519Z,101013.52
2019-02-20T05:16:35.773Z,101011.28
2019-02-20T05:17:39.872Z,101008.61
2019-02-20T05:18:44.118Z,101008.16
2019-02-20T05:19:48.433Z,101009.05
2019-02-20T05:20:52.684Z,101009.50
2019-02-20T05:21:56.542Z,101003.69
2019-02-20T05:23:00.564Z,101013.48
2019-02-20T05:24:04.728Z,101015.70
2019-02-20T05:25:08.810Z,101014.81
2019-02-20T05:26:12.826Z,101007.21
2019-02-20T05:27:17.093Z,101016.59
2019-02-20T05:28:21.400Z,101015.24
2019-02-20T05:29:26.014Z,101012.52
2019-02-20T05:30:29.965Z,101018.77
2019-02-20T05:31:34.284Z,101015.64
2019-02-20T05:32:38.239Z,101015.19
2019-02-20T05:33:42.258Z,101020.11
2019-02-20T05:34:46.125Z,101020.11
2019-02-20T05:35:50.063Z,101019.66
2019-02-20T05:36:54.013Z,101015.64
2019-02-20T05:37:58.325Z,101019.67
2019-02-20T05:39:02.440Z,101022.35
2019-02-20T05:40:06.844Z,101022.39
2019-02-20T05:41:10.861Z,101027.31
2019-02-20T05:42:15.457Z,101025.08
2019-02-20T05:43:19.727Z,101022.85
2019-02-20T05:44:23.680Z,101028.66
2019-02-20T05:45:27.623Z,101029.11
2019-02-20T05:46:31.563Z,101031.35
2019-02-20T05:47:35.997Z,101033.63
2019-02-20T05:48:40.279Z,101037.64
2019-02-20T05:49:44.239Z,101036.76
2019-02-20T05:50:49.000Z,101039.44
2019-02-20T05:51:52.979Z,101043.02
2019-02-20T05:52:57.369Z,101041.68
2019-02-20T05:54:01.301Z,101041.23
2019-02-20T05:55:05.660Z,101042.57
2019-02-20T05:56:10.088Z,101036.77
2019-02-20T05:57:14.283Z,101043.01
2019-02-20T05:58:18.148Z,101047.03
2019-02-20T05:59:22.331Z,101047.92
2019-02-20T06:00:26.275Z,101048.38
2019-02-20T06:01:30.749Z,101049.72
2019-02-20T06:02:35.139Z,101050.61
2019-02-20T06:03:39.095Z,101049.27
2019-02-20T06:04:43.352Z,101054.67
2019-02-20T06:05:47.386Z,101052.89
2019-02-20T06:06:53.171Z,101051.11
2019-02-20T06:07:57.061Z,101053.34
2019-02-20T06:09:01.107Z,101058.25
2019-02-20T06:10:08.933Z,101061.39
2019-02-20T06:11:15.177Z,101059.19
2019-02-20T06:12:19.567Z,101063.17
2019-02-20T06:13:23.837Z,101064.06
2019-02-20T06:14:27.842Z,101062.77
2019-02-20T06:15:31.915Z,101059.64
2019-02-20T06:16:35.987Z,101065.89
2019-02-20T06:17:40.039Z,101060.53
2019-02-20T06:18:44.334Z,101060.53
2019-02-20T06:19:48.854Z,101069.86
2019-02-20T06:20:53.034Z,101069.86
2019-02-20T06:21:57.034Z,101069.42
2019-02-20T06:23:00.962Z,101068.97
2019-02-20T06:24:05.234Z,101067.19
2019-02-20T06:25:09.269Z,101066.29
2019-02-20T06:26:13.504Z,101070.72
2019-02-20T06:27:17.845Z,101069.86
2019-02-20T06:28:22.051Z,101065.80
2019-02-20T06:29:26.299Z,101068.03
2019-02-20T06:30:30.314Z,101067.58
2019-02-20T06:31:34.823Z,101064.45
2019-02-20T06:32:38.826Z,101064.91
2019-02-20T06:33:43.096Z,101066.25
2019-02-20T06:34:47.096Z,101064.05
2019-02-20T06:35:51.590Z,101062.72
2019-02-20T06:36:55.886Z,101071.21
2019-02-20T06:38:00.071Z,101068.98
2019-02-20T06:39:05.170Z,101078.80
2019-02-20T06:40:09.645Z,101069.02
2019-02-20T06:41:14.245Z,101075.27
2019-02-20T06:42:18.178Z,101080.63
2019-02-20T06:43:22.581Z,101077.91
2019-02-20T06:44:27.301Z,101077.05
2019-02-20T06:45:31.310Z,101077.06
2019-02-20T06:46:35.511Z,101079.30
2019-02-20T06:47:39.707Z,101080.22
2019-02-20T06:48:43.991Z,101084.24
2019-02-20T06:49:48.010Z,101078.41
2019-02-20T06:50:52.031Z,101083.76
2019-02-20T06:51:56.510Z,101081.53
2019-02-20T06:53:01.020Z,101082.42
2019-02-20T06:54:05.040Z,101083.31
2019-02-20T06:55:09.661Z,101081.48
2019-02-20T06:56:13.967Z,101080.14
2019-02-20T06:57:18.256Z,101073.89
2019-02-20T06:58:22.479Z,101077.91
2019-02-20T06:59:26.622Z,101076.12
2019-02-20T07:00:30.644Z,101078.80
2019-02-20T07:01:34.943Z,101082.81
2019-02-20T07:02:39.075Z,101085.95
2019-02-20T07:03:43.288Z,101079.24
2019-02-20T07:05:23.052Z,101076.56
2019-02-20T07:06:37.809Z,101072.50
2019-02-20T07:08:17.635Z,101085.06
2019-02-20T07:10:07.608Z,101088.23
2019-02-20T07:11:38.793Z,101085.55
2019-02-20T07:13:09.271Z,101092.73
2019-02-20T07:14:32.406Z,101085.14
2019-02-20T07:16:45.524Z,101094.52
2019-02-20T07:18:29.010Z,101092.32
2019-02-20T07:19:47.961Z,101089.64
2019-02-20T07:21:15.623Z,101091.02
2019-02-20T07:23:12.915Z,101090.09
2019-02-20T07:24:47.736Z,101094.59
2019-02-20T07:26:26.967Z,101098.58
2019-02-20T07:28:14.758Z,101095.93
2019-02-20T07:29:43.314Z,101098.16
2019-02-20T07:30:47.177Z,101090.98
2019-02-20T07:31:51.387Z,101102.11
2019-02-20T07:32:55.891Z,101105.69
2019-02-20T07:34:00.183Z,101098.50
2019-02-20T07:35:04.405Z,101106.09
2019-02-20T07:36:08.412Z,101109.22
2019-02-20T07:37:12.596Z,101105.60
2019-02-20T07:38:16.802Z,101106.01
2019-02-20T07:39:20.983Z,101110.02
2019-02-20T07:40:24.996Z,101107.30
2019-02-20T07:41:29.169Z,101102.83
2019-02-20T07:42:33.295Z,101105.02
2019-02-20T07:43:37.483Z,101108.09
2019-02-20T07:44:41.684Z,101113.44
2019-02-20T07:45:45.685Z,101112.05
2019-02-20T07:46:49.796Z,101111.09
2019-02-20T07:47:54.352Z,101108.37
2019-02-20T07:48:58.367Z,101115.51
2019-02-20T07:50:02.886Z,101116.34
2019-02-20T07:51:06.991Z,101119.42
2019-02-20T07:52:11.392Z,101113.99
2019-02-20T07:53:15.589Z,101110.39
2019-02-20T07:54:19.790Z,101111.69
2019-02-20T07:55:24.057Z,101113.91
2019-02-20T07:56:28.316Z,101107.59
2019-02-20T07:57:32.266Z,101107.59
2019-02-20T07:58:36.515Z,101116.53
2019-02-20T07:59:40.579Z,101117.44
2019-02-20T08:00:44.518Z,101122.84
2019-02-20T08:01:48.710Z,101121.01
2019-02-20T08:02:52.984Z,101127.27
2019-02-20T08:03:56.928Z,101126.36
2019-02-20T08:05:01.243Z,101128.98
2019-02-20T08:06:05.583Z,101132.09
2019-02-20T08:07:09.890Z,101132.48
2019-02-20T08:08:14.157Z,101132.48
2019-02-20T08:09:18.477Z,101132.92
2019-02-20T08:10:22.483Z,101125.30
2019-02-20T08:11:26.797Z,101132.84
2019-02-20T08:12:31.059Z,101131.48
2019-02-20T08:13:39.241Z,101134.11
2019-02-20T08:14:40.911Z,101137.62
2019-02-20T08:15:45.423Z,101134.00
2019-02-20T08:16:52.240Z,101136.65
2019-02-20T08:17:55.448Z,101133.88
2019-02-20T08:18:59.626Z,101137.36
2019-02-20T08:20:03.731Z,101133.25
2019-02-20T08:21:07.674Z,101130.94
2019-02-20T08:22:11.608Z,101130.91
2019-02-20T08:23:16.132Z,101131.73
2019-02-20T08:24:20.299Z,101127.23
2019-02-20T08:25:24.562Z,101126.70
2019-02-20T08:26:28.493Z,101133.39
2019-02-20T08:27:32.749Z,101126.70
2019-02-20T08:28:36.695Z,101130.33
2019-02-20T08:29:40.701Z,101130.80
2019-02-20T08:30:44.872Z,101135.27
2019-02-20T08:31:49.141Z,101140.64
2019-02-20T08:32:53.085Z,101147.75
2019-02-20T08:33:57.297Z,101145.56
2019-02-20T08:35:01.409Z,101148.21
2019-02-20T08:36:05.709Z,101150.44
2019-02-20T08:37:09.986Z,101152.24
2019-02-20T08:38:13.943Z,101148.65
2019-02-20T08:39:18.085Z,101150.49
2019-02-20T08:40:22.127Z,101152.67
2019-02-20T08:41:26.059Z,101147.72
2019-02-20T08:42:30.167Z,101145.49
2019-02-20T08:43:34.037Z,101148.27
2019-02-20T08:44:38.026Z,101144.27
2019-02-20T08:45:41.960Z,101151.88
2019-02-20T08:46:45.961Z,101155.07
2019-02-20T08:47:50.181Z,101162.33
2019-02-20T08:48:54.370Z,101156.91
2019-02-20T08:49:58.635Z,101160.05
2019-02-20T08:51:03.095Z,101164.14
2019-02-20T08:52:07.918Z,101161.45
2019-02-20T08:53:12.308Z,101156.98
2019-02-20T08:54:16.486Z,101158.77
2019-02-20T08:55:21.566Z,101168.09
2019-02-20T08:56:26.054Z,101161.39
2019-02-20T08:57:30.295Z,101157.42
2019-02-20T08:58:34.309Z,101161.39
2019-02-20T08:59:38.335Z,101166.76
2019-02-20T09:00:42.592Z,101168.97
2019-02-20T09:01:46.514Z,101175.16
2019-02-20T09:02:50.475Z,101164.79
2019-02-20T09:03:54.423Z,101174.60
2019-02-20T09:04:58.606Z,101169.13
2019-02-20T09:06:02.595Z,101171.30
2019-02-20T09:07:07.048Z,101171.73
2019-02-20T09:08:11.057Z,101170.36
2019-02-20T09:09:15.051Z,101167.59
2019-02-20T09:10:19.161Z,101169.80
2019-02-20T09:11:23.532Z,101165.24
2019-02-20T09:12:27.471Z,101162.07
2019-02-20T09:13:31.385Z,101167.39
2019-02-20T09:14:35.250Z,101166.92
2019-02-20T09:15:39.116Z,101174.45
2019-02-20T09:16:43.427Z,101165.91
2019-02-20T09:17:47.287Z,101168.52
2019-02-20T09:18:51.490Z,101168.05
2019-02-20T09:19:55.500Z,101165.79
2019-02-20T09:20:59.328Z,101165.34
2019-02-20T09:22:03.316Z,101162.19
2019-02-20T09:23:07.322Z,101161.30
2019-02-20T09:24:11.736Z,101164.45
2019-02-20T09:25:19.837Z,101162.20
2019-02-20T09:26:22.299Z,101162.20
2019-02-20T09:27:26.438Z,101164.46
2019-02-20T09:28:31.019Z,101166.26
2019-02-20T09:29:34.963Z,101171.19
2019-02-20T09:30:38.898Z,101163.19
2019-02-20T09:31:43.364Z,101161.87
2019-02-20T09:32:47.554Z,101167.27
2019-02-20T09:33:51.742Z,101172.66
2019-02-20T09:34:55.943Z,101165.48
2019-02-20T09:36:00.251Z,101167.70
2019-02-20T09:37:04.460Z,101169.47
2019-02-20T09:38:10.487Z,101164.09
2019-02-20T09:39:46.071Z,101172.59
2019-02-20T09:40:50.253Z,101167.23
2019-02-20T09:41:54.611Z,101170.36
2019-02-20T09:42:58.539Z,101169.48
2019-02-20T09:44:02.544Z,101168.13
2019-02-20T09:45:06.753Z,101162.66
2019-02-20T09:46:10.653Z,101166.60
2019-02-20T09:47:14.900Z,101166.09
2019-02-20T09:48:23.911Z,101167.33
2019-02-20T09:49:28.230Z,101165.52
2019-02-20T09:50:32.464Z,101171.38
2019-02-20T09:51:36.632Z,101165.98
2019-02-20T09:52:40.948Z,101171.73
2019-02-20T09:53:45.240Z,101162.70
2019-02-20T09:54:49.508Z,101174.73
2019-02-20T09:55:53.510Z,101169.80
2019-02-20T09:56:57.698Z,101171.54
2019-02-20T09:58:02.203Z,101175.97
2019-02-20T09:59:06.206Z,101178.63
2019-02-20T10:00:12.780Z,101181.20
2019-02-20T10:01:17.056Z,101172.56
2019-02-20T10:02:21.060Z,101176.58
2019-02-20T10:03:25.232Z,101180.13
2019-02-20T10:04:29.418Z,101178.23
2019-02-20T10:05:33.438Z,101175.03
2019-02-20T10:06:37.714Z,101175.37
2019-02-20T10:07:41.741Z,101173.02
2019-02-20T10:08:45.889Z,101176.01
2019-02-20T10:09:49.822Z,101177.75
2019-02-20T10:10:53.764Z,101182.56
2019-02-20T10:11:57.942Z,101178.44
2019-02-20T10:13:01.798Z,101174.79
2019-02-20T10:14:06.046Z,101172.05
2019-02-20T10:15:11.207Z,101171.92
2019-02-20T10:16:15.370Z,101174.08
2019-02-20T10:17:20.107Z,101182.99
2019-02-20T10:18:24.037Z,101183.37
2019-02-20T10:19:28.043Z,101185.53
2019-02-20T10:20:32.497Z,101184.11
2019-02-20T10:21:36.494Z,101177.78
2019-02-20T10:22:40.495Z,101183.97
2019-02-20T10:23:45.302Z,101177.62
2019-02-20T10:24:49.159Z,101182.45
2019-02-20T10:26:00.547Z,101184.16
2019-02-20T10:27:00.873Z,101178.58
2019-02-20T10:28:05.015Z,101175.88
2019-02-20T10:29:08.966Z,101177.23
2019-02-20T10:30:15.102Z,101176.34
2019-02-20T10:31:19.125Z,101175.88
2019-02-20T10:32:23.118Z,101175.74
2019-02-20T10:33:26.989Z,101175.72
2019-02-20T10:34:31.261Z,101171.61
2019-02-20T10:35:35.114Z,101174.23
2019-02-20T10:36:39.705Z,101174.55
2019-02-20T10:37:43.746Z,101174.48
2019-02-20T10:38:47.621Z,101172.97
2019-02-20T10:39:51.906Z,101168.83
2019-02-20T10:40:55.947Z,101164.63
2019-02-20T10:41:59.964Z,101167.24
2019-02-20T10:43:03.977Z,101166.27
2019-02-20T10:44:08.554Z,101163.47
2019-02-20T10:45:12.589Z,101163.84
2019-02-20T10:46:17.246Z,101163.26
2019-02-20T10:47:21.119Z,101163.11
2019-02-20T10:48:25.452Z,101163.53
2019-02-20T10:49:29.387Z,101167.59
2019-02-20T10:50:33.866Z,101158.56
2019-02-20T10:51:37.879Z,101155.37
2019-02-20T10:52:41.808Z,101156.69
2019-02-20T10:53:45.735Z,101151.66
2019-02-20T10:54:57.393Z,101154.30
2019-02-20T10:55:55.314Z,101148.39
2019-02-20T10:56:59.202Z,101146.55
2019-02-20T10:58:03.133Z,101150.08
2019-02-20T10:59:07.645Z,101144.61
2019-02-20T11:00:26.699Z,101147.18
2019-02-20T11:01:30.714Z,101143.03
2019-02-20T11:02:35.091Z,101145.57
2019-02-20T11:03:39.189Z,101148.56
2019-02-20T11:04:43.201Z,101150.67
2019-02-20T11:05:47.458Z,101147.38
2019-02-20T11:06:53.331Z,101152.58
2019-02-20T11:07:57.403Z,101147.88
2019-02-20T11:09:01.690Z,101146.42
2019-02-20T11:10:07.520Z,101153.02
2019-02-20T11:11:11.517Z,101147.00
2019-02-20T11:12:16.005Z,101138.31
2019-02-20T11:13:19.940Z,101138.13
2019-02-20T11:14:23.822Z,101141.05
2019-02-20T11:15:27.751Z,101141.63
2019-02-20T11:16:33.091Z,101135.50
2019-02-20T11:17:37.566Z,101134.38
2019-02-20T11:18:41.419Z,101133.64
2019-02-20T11:19:45.425Z,101134.64
2019-02-20T11:20:49.432Z,101134.36
2019-02-20T11:21:53.607Z,101133.53
2019-02-20T11:22:57.556Z,101135.88
2019-02-20T11:24:01.820Z,101128.80
2019-02-20T11:25:06.767Z,101132.03
2019-02-20T11:26:17.875Z,101129.81
2019-02-20T11:27:16.445Z,101124.48
2019-02-20T11:28:26.780Z,101121.92
2019-02-20T11:29:26.311Z,101122.50
2019-02-20T11:30:30.958Z,101113.24
2019-02-20T11:31:35.288Z,101112.97
2019-02-20T11:32:39.595Z,101112.64
2019-02-20T11:33:43.614Z,101113.67
2019-02-20T11:34:48.022Z,101114.70
2019-02-20T11:35:52.325Z,101118.06
2019-02-20T11:36:56.519Z,101121.85
2019-02-20T11:38:00.400Z,101116.55
2019-02-20T11:39:06.160Z,101115.43
2019-02-20T11:40:10.485Z,101106.94
2019-02-20T11:41:14.526Z,101113.38
2019-02-20T11:42:18.529Z,101107.59
2019-02-20T11:43:22.479Z,101106.88
2019-02-20T11:44:26.838Z,101109.70
2019-02-20T11:45:31.172Z,101101.78
2019-02-20T11:46:35.214Z,101100.14
2019-02-20T11:47:39.426Z,101096.64
2019-02-20T11:48:44.360Z,101098.16
2019-02-20T11:49:48.522Z,101102.00
2019-02-20T11:50:52.568Z,101092.29
2019-02-20T11:51:56.728Z,101096.41
2019-02-20T11:53:01.188Z,101097.91
2019-02-20T11:54:05.250Z,101095.58
2019-02-20T11:55:09.524Z,101098.91
2019-02-20T11:56:13.966Z,101101.57
2019-02-20T11:57:18.168Z,101095.50
2019-02-20T11:58:22.293Z,101097.16
2019-02-20T11:59:26.714Z,101094.70
2019-02-20T12:00:31.046Z,101099.02
2019-02-20T12:01:35.472Z,101090.56
2019-02-20T12:02:39.606Z,101086.75
2019-02-20T12:03:43.830Z,101090.71
2019-02-20T12:04:47.805Z,101087.04
2019-02-20T12:05:51.838Z,101087.58
2019-02-20T12:06:56.146Z,101084.98
2019-02-20T12:08:00.435Z,101089.47
2019-02-20T12:09:05.702Z,101079.41
2019-02-20T12:10:09.951Z,101086.95
2019-02-20T12:11:14.230Z,101080.14
2019-02-20T12:12:18.583Z,101081.50
2019-02-20T12:13:22.610Z,101081.44
2019-02-20T12:14:26.641Z,101081.84
2019-02-20T12:15:31.069Z,101087.70
2019-02-20T12:16:35.614Z,101078.23
2019-02-20T12:17:41.051Z,101082.80
2019-02-20T12:18:48.056Z,101078.53
2019-02-20T12:19:52.058Z,101076.34
2019-02-20T12:20:56.087Z,101076.81
2019-02-20T12:22:00.393Z,101079.95
2019-02-20T12:23:04.399Z,101076.34
2019-02-20T12:24:08.735Z,101076.81